• Join FlightAware (Why Join?)
  • Login
  • US Flag 
10:51AM EDT


 

Airport Tracker/Info


-or-


 

Live Flight TrackerFlight Track Log ✈ N506TF ✈ 26-Apr-2013 ✈ KHAO - KSAT

Flight Track Log - Related Links

Times and Time Zones

All times are in EDT time to prevent confusion due to time zone crossing. See the N506TF flight status page for this flight to view local times or setup timezone preferences in your user account.

Time Position Orientation Groundspeed Altitude Reporting Facility
EDT Latitude Longitude Course Direction KTS MPH feet Rate Location/Type
12:57PM 39.3500 -84.4833 117° Southeast 200 230 2,200  Level Cincinnati TRACON
12:58PM 39.3167 -84.4000 117° Southeast 287 330 5,000 2,340 Climbing Cincinnati TRACON
12:59PM 39.2811 -84.3983 178° South 294 338 6,000 3,600 Climbing Indianapolis Center
01:00PM 39.2086 -84.3928 177° South 264 304 10,600 2,940 Climbing Indianapolis Center
01:05PM 38.9700 -84.7450 177° South 259 298 25,200 2,640 Climbing FlightAware
01:06PM 38.9510 -84.7900 242° Southwest 254 292 26,500 1,860 Climbing FlightAware
01:07PM 38.9220 -84.8520 239° Southwest 260 299 27,900 1,980 Climbing FlightAware
01:07PM 38.8970 -84.9070 240° Southwest 244 281 29,500 2,700 Climbing FlightAware
01:08PM 38.8720 -84.9500 233° Southwest 214 246 31,500 1,740 Climbing FlightAware
01:09PM 38.8480 -84.9980 237° Southwest 236 272 32,000 1,200 Climbing FlightAware
01:09PM 38.8200 -85.0460 233° Southwest 231 266 33,200 1,500 Climbing FlightAware
01:10PM 38.7930 -85.0940 234° Southwest 229 264 34,200 900 Climbing FlightAware
01:11PM 38.7720 -85.1300 233° Southwest 230 265 34,400 1,800 Climbing FlightAware
01:11PM 38.7440 -85.1800 234° Southwest 204 235 36,600 2,100 Climbing FlightAware
01:12PM 38.7190 -85.2240 234° Southwest 197 227 37,600 900 Climbing FlightAware
01:13PM 38.7010 -85.2570 235° Southwest 214 246 37,800 300 Climbing FlightAware
01:13PM 38.6720 -85.3070 233° Southwest 236 272 38,000 480 Climbing FlightAware
01:14PM 38.6430 -85.3580 234° Southwest 237 273 38,600 900 Climbing FlightAware
01:15PM 38.6170 -85.4030 234° Southwest 231 266 39,300 720 Climbing FlightAware
01:16PM 38.5890 -85.4530 234° Southwest 241 277 39,700 480 Climbing FlightAware
01:16PM 38.5630 -85.4990 234° Southwest 250 288 40,000 660 Climbing FlightAware
01:17PM 38.5350 -85.5460 233° Southwest 245 282 40,600 840 Climbing FlightAware
01:18PM 38.5060 -85.5980 235° Southwest 240 276 41,200 660 Climbing FlightAware
01:18PM 38.4790 -85.6440 233° Southwest 241 277 41,600 540 Climbing FlightAware
01:19PM 38.4490 -85.6970 234° Southwest 241 277 42,000 480 Climbing FlightAware
01:20PM 38.4220 -85.7430 233° Southwest 244 281 42,300 360 Climbing FlightAware
01:20PM 38.3950 -85.7910 234° Southwest 248 285 42,500 300 Climbing FlightAware
01:21PM 38.3650 -85.8420 233° Southwest 246 283 42,800 300 Climbing FlightAware
01:22PM 38.3380 -85.8890 234° Southwest 250 288 43,000 180 Climbing FlightAware
01:23PM 38.3070 -85.9430 234° Southwest 257 296 43,100  Climbing FlightAware
01:23PM 38.2770 -85.9940 233° Southwest 267 307 43,000 -120 Descending FlightAware
01:24PM 38.2530 -86.0350 233° Southwest 273 314 43,000  Level FlightAware
01:25PM 38.2140 -86.1020 233° Southwest 283 326 43,000  Level FlightAware
01:25PM 38.1830 -86.1550 233° Southwest 290 334 43,000  Level FlightAware
01:26PM 38.1510 -86.2100 234° Southwest 295 339 43,000  Level FlightAware
01:27PM 38.1130 -86.2750 233° Southwest 300 345 43,000  Level FlightAware
01:27PM 38.0840 -86.3230 233° Southwest 303 349 43,000  Level FlightAware
01:28PM 38.0450 -86.3890 233° Southwest 306 352 43,000  Level FlightAware
01:29PM 38.0120 -86.4460 234° Southwest 308 354 43,000  Level FlightAware
01:29PM 37.9760 -86.5060 233° Southwest 310 357 43,000  Level FlightAware
01:30PM 37.9390 -86.5690 233° Southwest 312 359 43,000  Level FlightAware
01:31PM 37.9040 -86.6280 233° Southwest 312 359 43,000  Level FlightAware
01:32PM 37.8650 -86.6950 234° Southwest 313 360 43,000  Level FlightAware
01:32PM 37.8300 -86.7530 233° Southwest 313 360 43,000  Level FlightAware
01:33PM 37.7986 -86.8057 233° Southwest 43,000  Level FlightAware ADS-B
01:33PM 37.7879 -86.8237 233° Southwest 314 361 43,000  Level FlightAware ADS-B
01:34PM 37.7560 -86.8780 233° Southwest 313 360 43,000  Level FlightAware
01:34PM 37.7439 -86.8976 232° Southwest 314 361 43,000  Level FlightAware ADS-B
01:35PM 37.6820 -87.0010 233° Southwest 316 364 43,000  Level FlightAware
01:36PM 37.6460 -87.0600 232° Southwest 316 364 43,000  Level FlightAware
01:36PM 37.6110 -87.1200 234° Southwest 317 365 43,000  Level FlightAware
01:37PM 37.5700 -87.1870 232° Southwest 317 365 43,000  Level FlightAware
01:38PM 37.5350 -87.2450 233° Southwest 317 365 43,000  Level FlightAware
01:39PM 37.4980 -87.3070 233° Southwest 317 365 43,000  Level FlightAware
01:39PM 37.4600 -87.3690 232° Southwest 316 364 43,000  Level FlightAware
01:40PM 37.4240 -87.4280 232° Southwest 317 365 43,000  Level FlightAware
01:41PM 37.3850 -87.4930 233° Southwest 318 366 43,000  Level FlightAware
01:41PM 37.3490 -87.5520 233° Southwest 317 365 43,000  Level FlightAware
01:42PM 37.3090 -87.6170 232° Southwest 318 366 43,000  Level FlightAware
01:43PM 37.2740 -87.6750 233° Southwest 317 365 43,000  Level FlightAware
01:43PM 37.2370 -87.7360 233° Southwest 316 364 43,000  Level FlightAware
01:44PM 37.1970 -87.8000 232° Southwest 317 365 43,000  Level FlightAware
01:45PM 37.1610 -87.8590 233° Southwest 318 366 43,000  Level FlightAware
01:46PM 37.1220 -87.9230 233° Southwest 319 367 43,000  Level FlightAware
01:46PM 37.0830 -87.9840 231° Southwest 319 367 43,000  Level FlightAware
01:47PM 37.0480 -88.0420 233° Southwest 320 368 43,000  Level FlightAware
01:48PM 37.0060 -88.1090 232° Southwest 320 368 43,000  Level FlightAware
01:48PM 36.9740 -88.1610 232° Southwest 319 367 43,000  Level FlightAware
01:49PM 36.9400 -88.2170 233° Southwest 317 365 43,000  Level FlightAware
01:50PM 36.8970 -88.2850 232° Southwest 316 364 43,000  Level FlightAware
01:50PM 36.8640 -88.3380 232° Southwest 316 364 43,000  Level FlightAware
01:51PM 36.8190 -88.4100 232° Southwest 314 361 43,000  Level FlightAware
01:52PM 36.7830 -88.4680 232° Southwest 315 362 43,000  Level FlightAware
01:53PM 36.7500 -88.5200 232° Southwest 315 362 43,000  Level FlightAware
01:53PM 36.7060 -88.5910 232° Southwest 315 362 43,000  Level FlightAware
01:54PM 36.6700 -88.6480 232° Southwest 314 361 43,000  Level FlightAware
01:55PM 36.6300 -88.7110 232° Southwest 314 361 43,000  Level FlightAware
01:55PM 36.5930 -88.7690 232° Southwest 315 362 43,000  Level FlightAware
01:56PM 36.5480 -88.8400 232° Southwest 315 362 43,000  Level FlightAware
01:57PM 36.5160 -88.8880 230° Southwest 315 362 43,000  Level FlightAware
01:58PM 36.4850 -88.9360 231° Southwest 315 362 43,000  Level FlightAware
01:58PM 36.4460 -88.9960 231° Southwest 315 362 43,000  Level FlightAware
01:59PM 36.4150 -89.0440 231° Southwest 315 362 43,000  Level FlightAware
02:00PM 36.3840 -89.0910 231° Southwest 315 362 43,000  Level FlightAware
02:00PM 36.3530 -89.1390 231° Southwest 315 362 43,000  Level FlightAware
02:01PM 36.3220 -89.1870 231° Southwest 315 362 43,000  Level FlightAware
02:02PM 36.2830 -89.2470 231° Southwest 315 362 43,000  Level FlightAware
02:03PM 36.2510 -89.2950 230° Southwest 315 362 43,000  Level FlightAware
02:03PM 36.2200 -89.3420 231° Southwest 315 362 43,000  Level FlightAware
02:04PM 36.1890 -89.3900 231° Southwest 315 362 43,000  Level FlightAware
02:05PM 36.1580 -89.4380 231° Southwest 315 362 43,000  Level FlightAware
02:05PM 36.1190 -89.4970 231° Southwest 315 362 43,000  Level FlightAware
02:07PM 35.9881 -89.7081 231° Southwest 317 365 43,000  Level Memphis Center
02:08PM 35.9342 -89.7931 232° Southwest 317 365 43,000  Level Memphis Center
02:09PM 35.8803 -89.8753 231° Southwest 317 365 43,000  Level Memphis Center
02:10PM 35.8244 -89.9603 231° Southwest 317 365 43,000  Level Memphis Center
02:11PM 35.7703 -90.0422 231° Southwest 322 371 43,000  Level Memphis Center
02:12PM 35.7164 -90.1244 231° Southwest 322 371 43,000  Level Memphis Center
02:13PM 35.6644 -90.2114 234° Southwest 307 353 43,000  Level Memphis Center
02:14PM 35.6122 -90.2931 232° Southwest 300 345 43,000  Level Memphis Center
02:15PM 35.5581 -90.3725 230° Southwest 300 345 43,000  Level Memphis Center
02:16PM 35.5081 -90.4514 232° Southwest 300 345 43,000  Level Memphis Center
02:17PM 35.4536 -90.5303 230° Southwest 300 345 43,000  Level Memphis Center
02:18PM 35.4014 -90.6092 231° Southwest 300 345 43,000  Level Memphis Center
02:19PM 35.3469 -90.6881 230° Southwest 305 351 43,000  Level Memphis Center
02:20PM 35.2989 -90.7617 231° Southwest 305 351 43,000  Level Memphis Center
02:21PM 35.2464 -90.8428 232° Southwest 305 351 43,000  Level Memphis Center
02:22PM 35.1958 -90.9186 231° Southwest 305 351 43,000  Level Memphis Center
02:23PM 35.1433 -90.9944 230° Southwest 305 351 43,000  Level Memphis Center
02:24PM 35.0889 -91.0778 231° Southwest 305 351 43,000  Level Memphis Center
02:25PM 35.0319 -91.1558 228° Southwest 305 351 43,000  Level Memphis Center
02:26PM 34.9792 -91.2392 232° Southwest 305 351 43,000  Level Memphis Center
02:27PM 34.9181 -91.3244 229° Southwest 310 357 43,000  Level Memphis Center
02:28PM 34.8633 -91.4050 230° Southwest 310 357 43,000  Level Memphis Center
02:29PM 34.8083 -91.4825 229° Southwest 310 357 43,000  Level Memphis Center
02:30PM 34.7533 -91.5653 231° Southwest 303 349 43,000  Level Memphis Center
02:31PM 34.6961 -91.6453 229° Southwest 314 361 43,000  Level Memphis Center
02:32PM 34.6431 -91.7228 230° Southwest 309 356 43,000  Level Memphis Center
02:33PM 34.5922 -91.7978 231° Southwest 304 350 43,000  Level Memphis Center
02:34PM 34.5350 -91.8800 230° Southwest 309 356 43,000  Level Memphis Center
02:35PM 34.4797 -91.9597 230° Southwest 309 356 43,000  Level Memphis Center
02:36PM 34.4222 -92.0392 229° Southwest 309 356 43,000  Level Memphis Center
02:37PM 34.3669 -92.1211 231° Southwest 309 356 43,000  Level Memphis Center
02:38PM 34.3094 -92.2003 229° Southwest 314 361 43,000  Level Memphis Center
02:39PM 34.2539 -92.2819 231° Southwest 314 361 43,000  Level Memphis Center
02:40PM 34.1986 -92.3586 229° Southwest 314 361 43,000  Level Memphis Center
02:41PM 34.1428 -92.4403 230° Southwest 320 368 43,000  Level Memphis Center
02:42PM 34.0850 -92.5242 230° Southwest 320 368 43,000  Level Memphis Center
02:43PM 34.0294 -92.6103 232° Southwest 326 375 43,000  Level Memphis Center
02:44PM 33.9694 -92.6939 229° Southwest 326 375 43,000  Level Memphis Center
02:51PM 33.5360 -93.2934 229° Southwest 314 361 43,000  Level FlightAware ADS-B
02:52PM 33.5068 -93.3340 229° Southwest 314 361 43,000  Level FlightAware ADS-B
02:54PM 33.3807 -93.5087 229° Southwest 43,000  Level FlightAware ADS-B
02:54PM 33.3724 -93.5201 229° Southwest 315 362 43,000  Level FlightAware ADS-B
02:55PM 33.3258 -93.5843 229° Southwest 315 362 43,000  Level FlightAware ADS-B
02:58PM 33.1641 -93.8063 229° Southwest 314 361 43,000  Level FlightAware ADS-B
03:01PM 32.9655 -94.0768 229° Southwest 310 357 43,000  Level FlightAware ADS-B
03:03PM 32.8525 -94.1630 213° Southwest 43,000  Level FlightAware ADS-B
03:03PM 32.8292 -94.1791 210° Southwest 308 354 43,000  Level FlightAware ADS-B
03:05PM 32.6740 -94.2848 210° Southwest 286 329 43,000  Level FlightAware ADS-B
03:05PM 32.6555 -94.2974 210° Southwest 285 328 43,000  Level FlightAware ADS-B
03:06PM 32.6210 -94.3208 210° Southwest 285 328 43,000  Level FlightAware ADS-B
03:06PM 32.6023 -94.3336 210° Southwest 286 329 43,000  Level FlightAware ADS-B
03:06PM 32.5850 -94.3453 210° Southwest 288 331 43,000  Level FlightAware ADS-B
03:07PM 32.5671 -94.3575 210° Southwest 289 333 43,000  Level FlightAware ADS-B
03:07PM 32.5497 -94.3692 210° Southwest 289 333 43,000  Level FlightAware ADS-B
03:07PM 32.5310 -94.3818 210° Southwest 289 333 43,000  Level FlightAware ADS-B
03:08PM 32.4951 -94.4061 210° Southwest 290 334 43,000  Level FlightAware ADS-B
03:09PM 32.4357 -94.4462 210° Southwest 292 336 43,000  Level FlightAware ADS-B
03:09PM 32.3997 -94.4704 210° Southwest 292 336 43,000  Level FlightAware ADS-B
03:10PM 32.3247 -94.5210 210° Southwest 292 336 43,000  Level FlightAware ADS-B
03:11PM 32.2725 -94.5561 210° Southwest 292 336 43,000  Level FlightAware ADS-B
03:11PM 32.2293 -94.5852 210° Southwest 294 338 43,000  Level FlightAware ADS-B
03:12PM 32.2229 -94.5895 210° Southwest 294 338 43,000  Level FlightAware ADS-B
03:12PM 32.1926 -94.6098 210° Southwest 294 338 43,000  Level FlightAware ADS-B
03:12PM 32.1841 -94.6155 210° Southwest 294 338 43,000  Level FlightAware ADS-B
03:12PM 32.1568 -94.6339 210° Southwest 295 339 43,000  Level FlightAware ADS-B
03:13PM 32.1215 -94.6575 210° Southwest 296 341 43,000  Level FlightAware ADS-B
03:13PM 32.0987 -94.6728 210° Southwest 296 341 43,000  Level FlightAware ADS-B
03:13PM 32.0844 -94.6824 210° Southwest 296 341 43,000  Level FlightAware ADS-B
03:14PM 32.0628 -94.6968 209° Southwest 297 342 43,000  Level FlightAware ADS-B
03:14PM 32.0474 -94.7071 210° Southwest 297 342 43,000  Level FlightAware ADS-B
03:14PM 32.0149 -94.7288 210° Southwest 298 343 43,000  Level FlightAware ADS-B
03:15PM 32.0021 -94.7374 210° Southwest 298 343 43,000  Level FlightAware ADS-B
03:15PM 31.9777 -94.7536 209° Southwest 298 343 43,000  Level FlightAware ADS-B
03:15PM 31.9658 -94.7616 210° Southwest 298 343 43,000  Level FlightAware ADS-B
03:15PM 31.9412 -94.7780 209° Southwest 298 343 43,000  Level FlightAware ADS-B
03:16PM 31.9297 -94.7856 209° Southwest 298 343 43,000  Level FlightAware ADS-B
03:16PM 31.9052 -94.8021 210° Southwest 298 343 43,000  Level FlightAware ADS-B
03:16PM 31.8935 -94.8098 209° Southwest 298 343 43,000  Level FlightAware ADS-B
03:17PM 31.8580 -94.8335 210° Southwest 298 343 43,000  Level FlightAware ADS-B
03:17PM 31.8211 -94.8580 209° Southwest 299 344 43,000  Level FlightAware ADS-B
03:17PM 31.8108 -94.8649 210° Southwest 298 343 43,000  Level FlightAware ADS-B
03:18PM 31.7833 -94.8831 209° Southwest 298 343 43,000  Level FlightAware ADS-B
03:18PM 31.7725 -94.8903 210° Southwest 298 343 43,000  Level FlightAware ADS-B
03:18PM 31.7475 -94.9068 209° Southwest 297 342 43,000  Level FlightAware ADS-B
03:18PM 31.7315 -94.9174 209° Southwest 296 341 43,000  Level FlightAware ADS-B
03:19PM 31.7103 -94.9315 210° Southwest 296 341 43,000  Level FlightAware ADS-B
03:19PM 31.6914 -94.9440 209° Southwest 296 341 43,000  Level FlightAware ADS-B
03:19PM 31.6745 -94.9552 209° Southwest 296 341 43,000  Level FlightAware ADS-B
03:19PM 31.6548 -94.9683 210° Southwest 296 341 43,000  Level FlightAware ADS-B
03:20PM 31.6383 -94.9792 209° Southwest 295 339 43,000  Level FlightAware ADS-B
03:20PM 31.6186 -94.9922 209° Southwest 294 338 43,000  Level FlightAware ADS-B
03:20PM 31.6025 -95.0030 210° Southwest 294 338 43,000  Level FlightAware ADS-B
03:21PM 31.5763 -95.0203 209° Southwest 294 338 43,000  Level FlightAware ADS-B
03:21PM 31.5663 -95.0268 209° Southwest 294 338 43,000  Level FlightAware ADS-B
03:21PM 31.5336 -95.0484 209° Southwest 294 338 43,000  Level FlightAware ADS-B
03:21PM 31.5302 -95.0506 209° Southwest 295 339 43,000  Level FlightAware ADS-B
03:22PM 31.4931 -95.0752 209° Southwest 295 339 43,000  Level FlightAware ADS-B
03:22PM 31.4889 -95.0779 209° Southwest 295 339 43,000  Level FlightAware ADS-B
03:22PM 31.4557 -95.0997 209° Southwest 296 341 43,000  Level FlightAware ADS-B
03:22PM 31.4529 -95.1016 210° Southwest 295 339 43,000  Level FlightAware ADS-B
03:23PM 31.4189 -95.1240 209° Southwest 296 341 43,000  Level FlightAware ADS-B
03:23PM 31.4168 -95.1254 210° Southwest 296 341 43,000  Level FlightAware ADS-B
03:23PM 31.3825 -95.1480 209° Southwest 295 339 43,000  Level FlightAware ADS-B
03:23PM 31.3806 -95.1492 208° Southwest 295 339 43,000  Level FlightAware ADS-B
03:24PM 31.3448 -95.1727 209° Southwest 294 338 43,000  Level FlightAware ADS-B
03:24PM 31.3418 -95.1747 210° Southwest 294 338 43,000  Level FlightAware ADS-B
03:24PM 31.3085 -95.1965 209° Southwest 293 337 43,000  Level FlightAware ADS-B
03:24PM 31.2993 -95.2026 210° Southwest 293 337 43,000  Level FlightAware ADS-B
03:25PM 31.2726 -95.2202 209° Southwest 293 337 43,000  Level FlightAware ADS-B
03:25PM 31.2629 -95.2265 209° Southwest 293 337 43,000  Level FlightAware ADS-B
03:25PM 31.2323 -95.2466 209° Southwest 293 337 43,000  Level FlightAware ADS-B
03:26PM 31.2248 -95.2515 209° Southwest 293 337 43,000  Level FlightAware ADS-B
03:26PM 31.1965 -95.2700 209° Southwest 292 336 43,000  Level FlightAware ADS-B
03:26PM 31.1893 -95.2746 209° Southwest 292 336 43,000  Level FlightAware ADS-B
03:26PM 31.1607 -95.2934 209° Southwest 292 336 43,000  Level FlightAware ADS-B
03:27PM 31.1513 -95.2995 209° Southwest 291 335 43,000  Level FlightAware ADS-B
03:27PM 31.1242 -95.3172 209° Southwest 291 335 43,000  Level FlightAware ADS-B
03:27PM 31.1157 -95.3228 209° Southwest 291 335 43,000  Level FlightAware ADS-B
03:27PM 31.0888 -95.3404 209° Southwest 294 338 43,000  Level FlightAware ADS-B
03:28PM 31.0799 -95.3463 210° Southwest 294 338 43,000  Level FlightAware ADS-B
03:28PM 31.0533 -95.3636 209° Southwest 294 338 43,000  Level FlightAware ADS-B
03:28PM 31.0436 -95.3699 209° Southwest 294 338 43,000  Level FlightAware ADS-B
03:28PM 31.0174 -95.3870 209° Southwest 294 338 43,000  Level FlightAware ADS-B
03:29PM 31.0042 -95.3957 209° Southwest 292 336 43,000  Level FlightAware ADS-B
03:29PM 30.9815 -95.4104 209° Southwest 292 336 43,000  Level FlightAware ADS-B
03:29PM 30.9674 -95.4195 209° Southwest 292 336 43,000  Level FlightAware ADS-B
03:29PM 30.9455 -95.4338 209° Southwest 292 336 43,000  Level FlightAware ADS-B
03:30PM 30.9299 -95.4439 209° Southwest 292 336 43,000  Level FlightAware ADS-B
03:30PM 30.9069 -95.4589 209° Southwest 293 337 43,000  Level FlightAware ADS-B
03:30PM 30.8944 -95.4671 209° Southwest 294 338 43,000  Level FlightAware ADS-B
03:31PM 30.8699 -95.4829 209° Southwest 292 336 43,000  Level FlightAware ADS-B
03:31PM 30.8477 -95.4974 209° Southwest 292 336 43,000  Level FlightAware ADS-B
03:31PM 30.8341 -95.5062 209° Southwest 292 336 43,000  Level FlightAware ADS-B
03:31PM 30.8122 -95.5204 209° Southwest 292 336 43,000  Level FlightAware ADS-B
03:31PM 30.8067 -95.5240 209° Southwest 291 335 43,000  Level FlightAware ADS-B
03:32PM 30.7733 -95.5456 209° Southwest 290 334 43,000  Level FlightAware ADS-B
03:32PM 30.7711 -95.5471 210° Southwest 290 334 43,000  Level FlightAware ADS-B
03:32PM 30.7355 -95.5701 209° Southwest 290 334 43,000  Level FlightAware ADS-B
03:33PM 30.7268 -95.5758 209° Southwest 290 334 43,000  Level FlightAware ADS-B
03:33PM 30.7001 -95.5931 209° Southwest 290 334 43,000  Level FlightAware ADS-B
03:33PM 30.6894 -95.6000 209° Southwest 290 334 43,000  Level FlightAware ADS-B
03:33PM 30.6648 -95.6159 209° Southwest 291 335 43,000  Level FlightAware ADS-B
03:34PM 30.6538 -95.6229 209° Southwest 291 335 43,000  Level FlightAware ADS-B
03:34PM 30.6268 -95.6403 209° Southwest 292 336 43,000  Level FlightAware ADS-B
03:34PM 30.6183 -95.6458 209° Southwest 292 336 43,000  Level FlightAware ADS-B
03:34PM 30.5912 -95.6633 209° Southwest 292 336 43,000  Level FlightAware ADS-B
03:35PM 30.5795 -95.6709 209° Southwest 292 336 43,000  Level FlightAware ADS-B
03:35PM 30.5558 -95.6861 209° Southwest 292 336 43,000  Level FlightAware ADS-B
03:35PM 30.5440 -95.6938 209° Southwest 292 336 43,000  Level FlightAware ADS-B
03:35PM 30.5187 -95.7100 209° Southwest 292 336 43,000  Level FlightAware ADS-B
03:36PM 30.5035 -95.7198 209° Southwest 292 336 43,000  Level FlightAware ADS-B
03:36PM 30.4828 -95.7331 209° Southwest 292 336 43,000  Level FlightAware ADS-B
03:36PM 30.4638 -95.7453 209° Southwest 292 336 43,000  Level FlightAware ADS-B
03:37PM 30.4460 -95.7567 209° Southwest 293 337 43,000  Level FlightAware ADS-B
03:37PM 30.4267 -95.7691 209° Southwest 293 337 43,000  Level FlightAware ADS-B
03:37PM 30.4093 -95.7803 209° Southwest 293 337 43,000  Level FlightAware ADS-B
03:37PM 30.3904 -95.7924 209° Southwest 292 336 43,000  Level FlightAware ADS-B
03:38PM 30.3735 -95.8033 209° Southwest 292 336 43,000  Level FlightAware ADS-B
03:38PM 30.3547 -95.8153 209° Southwest 293 337 43,000  Level FlightAware ADS-B
03:38PM 30.3364 -95.8270 209° Southwest 293 337 43,000  Level FlightAware ADS-B
03:38PM 30.3188 -95.8382 209° Southwest 293 337 43,000  Level FlightAware ADS-B
03:39PM 30.2996 -95.8506 209° Southwest 293 337 43,000  Level FlightAware ADS-B
03:39PM 30.2822 -95.8618 209° Southwest 293 337 43,000  Level FlightAware ADS-B
03:39PM 30.2633 -95.8738 209° Southwest 294 338 43,000  Level FlightAware ADS-B
03:39PM 30.2459 -95.8850 209° Southwest 294 338 43,000  Level FlightAware ADS-B
03:40PM 30.2266 -95.8973 209° Southwest 294 338 43,000  Level FlightAware ADS-B
03:40PM 30.2099 -95.9080 209° Southwest 294 338 43,000  Level FlightAware ADS-B
03:40PM 30.1908 -95.9203 209° Southwest 295 339 43,000  Level FlightAware ADS-B
03:40PM 30.1740 -95.9309 209° Southwest 295 339 43,000  Level FlightAware ADS-B
03:41PM 30.1499 -95.9464 209° Southwest 295 339 43,000  Level FlightAware ADS-B
03:41PM 30.1381 -95.9539 209° Southwest 295 339 43,000  Level FlightAware ADS-B
03:41PM 30.1140 -95.9693 209° Southwest 295 339 43,000  Level FlightAware ADS-B
03:41PM 30.1018 -95.9771 209° Southwest 295 339 43,000  Level FlightAware ADS-B
03:42PM 30.0780 -95.9923 209° Southwest 296 341 43,000  Level FlightAware ADS-B
03:42PM 30.0647 -96.0008 209° Southwest 296 341 43,000  Level FlightAware ADS-B
03:42PM 30.0410 -96.0159 209° Southwest 296 341 43,000  Level FlightAware ADS-B
03:42PM 30.0268 -96.0250 209° Southwest 296 341 43,000  Level FlightAware ADS-B
03:43PM 30.0047 -96.0390 209° Southwest 297 342 43,000  Level FlightAware ADS-B
03:43PM 29.9892 -96.0488 209° Southwest 297 342 43,000 -240 Level FlightAware ADS-B
03:43PM 29.9685 -96.0620 209° Southwest 301 346 42,900 -600 Descending FlightAware ADS-B
03:43PM 29.9523 -96.0724 209° Southwest 307 353 42,700 -780 Descending FlightAware ADS-B
03:44PM 29.9294 -96.0870 209° Southwest 313 360 42,500 -840 Descending FlightAware ADS-B
03:44PM 29.9138 -96.0969 209° Southwest 316 364 42,300 -840 Descending FlightAware ADS-B
03:44PM 29.8908 -96.1115 209° Southwest 322 371 42,100 -840 Descending FlightAware ADS-B
03:44PM 29.8748 -96.1215 208° Southwest 325 374 41,900 -900 Descending FlightAware ADS-B
03:45PM 29.8464 -96.1394 209° Southwest 331 381 41,600 -840 Descending FlightAware ADS-B
03:45PM 29.8347 -96.1468 209° Southwest 333 383 41,500 -720 Descending FlightAware ADS-B
03:45PM 29.8215 -96.1564 212° Southwest 329 379 41,400 -960 Descending FlightAware ADS-B
03:45PM 29.8188 -96.1588 218° Southwest 328 377 41,300 -1,500 Descending FlightAware ADS-B
03:45PM 29.8171 -96.1605 221° Southwest 327 376 41,300 -780 Level FlightAware ADS-B
03:45PM 29.8100 -96.1682 223° Southwest 324 373 41,200 -600 Descending FlightAware ADS-B
03:45PM 29.8061 -96.1733 229° Southwest 322 371 41,200 -900 Level FlightAware ADS-B
03:45PM 29.8030 -96.1778 232° Southwest 321 369 41,100 -1,020 Descending FlightAware ADS-B
03:45PM 29.8000 -96.1827 235° Southwest 320 368 41,100 -900 Level FlightAware ADS-B
03:45PM 29.7969 -96.1885 238° Southwest 319 367 41,000 -1,380 Descending FlightAware ADS-B
03:46PM 29.7941 -96.1945 242° Southwest 318 366 40,900 -1,020 Descending FlightAware ADS-B
03:46PM 29.7931 -96.1970 245° Southwest 317 365 40,900 -900 Level FlightAware ADS-B
03:46PM 29.7898 -96.2060 247° West 316 364 40,800 -720 Descending FlightAware ADS-B
03:46PM 29.7885 -96.2105 252° West 315 362 40,800 -600 Level FlightAware ADS-B
03:46PM 29.7856 -96.2239 256° West 314 361 40,700 -720 Descending FlightAware ADS-B
03:46PM 29.7853 -96.2255 258° West 314 361 40,700 -1,500 Level FlightAware ADS-B
03:46PM 29.7846 -96.2307 261° West 314 361 40,600 -1,500 Descending FlightAware ADS-B
03:46PM 29.7841 -96.2380 265° West 314 361 40,500 -900 Descending FlightAware ADS-B
03:46PM 29.7842 -96.2541 270° West 315 362 40,400 -960 Descending FlightAware ADS-B
03:47PM 29.7873 -96.2922 275° West 310 357 40,000 -1,200 Descending FlightAware ADS-B
03:47PM 29.7881 -96.3033 275° West 309 356 39,800 -1,500 Descending FlightAware ADS-B
03:47PM 29.7912 -96.3454 275° West 298 343 39,200 -1,200 Descending FlightAware ADS-B
03:47PM 29.7918 -96.3524 276° West 295 339 39,200 -1,020 Level FlightAware ADS-B
03:48PM 29.7950 -96.3920 275° West 282 325 38,700 -1,020 Descending FlightAware ADS-B
03:48PM 29.7954 -96.3979 274° West 277 319 38,700 -960 Level FlightAware ADS-B
03:48PM 29.7985 -96.4388 275° West 266 306 38,200 -1,020 Descending FlightAware ADS-B
03:48PM 29.7987 -96.4417 275° West 264 304 38,200 -1,140 Level FlightAware ADS-B
03:49PM 29.8018 -96.4836 275° West 255 293 37,600 -1,140 Descending FlightAware ADS-B
03:49PM 29.8019 -96.4842 281° West 260 299 37,600 -1,020 Level FlightAware ADS-B
03:49PM 29.8048 -96.5240 275° West 249 287 37,100 -1,080 Descending FlightAware ADS-B
03:49PM 29.8052 -96.5306 274° West 249 287 37,000 -960 Descending FlightAware ADS-B
03:50PM 29.8078 -96.5654 275° West 243 280 36,600 -1,020 Descending FlightAware ADS-B
03:50PM 29.8087 -96.5775 275° West 242 278 36,400 -1,200 Descending FlightAware ADS-B
03:50PM 29.8106 -96.6037 275° West 242 278 36,000 -1,320 Descending FlightAware ADS-B
03:51PM 29.8122 -96.6255 275° West 244 281 35,600 -1,560 Descending FlightAware ADS-B
03:51PM 29.8135 -96.6429 275° West 245 282 35,200 -1,500 Descending FlightAware ADS-B
03:51PM 29.8157 -96.6719 275° West 247 284 34,700 -1,440 Descending FlightAware ADS-B
03:51PM 29.8165 -96.6823 275° West 247 284 34,500 -1,440 Descending FlightAware ADS-B
03:52PM 29.8194 -96.7217 275° West 249 287 33,800 -1,440 Descending FlightAware ADS-B
03:52PM 29.8214 -96.7494 275° West 247 284 33,300 -1,440 Descending FlightAware ADS-B
03:52PM 29.8223 -96.7617 275° West 251 289 33,100 -1,500 Descending FlightAware ADS-B
03:53PM 29.8254 -96.8046 275° West 253 291 32,300 -1,500 Descending FlightAware ADS-B
03:53PM 29.8283 -96.8450 275° West 253 291 31,600 -1,440 Descending FlightAware ADS-B
03:54PM 29.8312 -96.8855 275° West 254 292 30,900 -1,500 Descending FlightAware ADS-B
03:54PM 29.8341 -96.9258 275° West 253 291 30,100 -1,500 Descending FlightAware ADS-B
03:55PM 29.8370 -96.9669 275° West 252 290 29,400 -1,380 Descending FlightAware ADS-B
03:55PM 29.8383 -96.9851 275° West 253 291 29,100 -1,380 Descending FlightAware ADS-B
03:55PM 29.8400 -97.0087 275° West 254 292 28,700 -1,500 Descending FlightAware ADS-B
03:56PM 29.8425 -97.0441 275° West 256 295 28,000 -1,560 Descending FlightAware ADS-B
03:56PM 29.8429 -97.0497 275° West 256 295 27,900 -1,380 Descending FlightAware ADS-B
03:56PM 29.8454 -97.0858 275° West 258 297 27,300 -1,380 Descending FlightAware ADS-B
03:56PM 29.8459 -97.0923 275° West 258 297 27,200 -1,620 Descending FlightAware ADS-B
03:57PM 29.8484 -97.1287 275° West 259 298 26,500 -1,620 Descending FlightAware ADS-B
03:57PM 29.8488 -97.1340 275° West 260 299 26,400 -1,320 Descending FlightAware ADS-B
03:57PM 29.8514 -97.1723 274° West 260 299 25,800 -1,380 Descending FlightAware ADS-B
03:57PM 29.8516 -97.1758 274° West 260 299 25,700 -1,500 Descending FlightAware ADS-B
03:58PM 29.8549 -97.2225 275° West 258 297 24,900 -1,440 Descending FlightAware ADS-B
03:58PM 29.8577 -97.2624 275° West 244 281 24,200 -1,380 Descending FlightAware ADS-B
03:59PM 29.8603 -97.3015 274° West 237 273 23,500 -1,500 Descending FlightAware ADS-B
03:59PM 29.8608 -97.3080 275° West 237 273 23,300 -1,620 Descending FlightAware ADS-B
03:59PM 29.8630 -97.3405 274° West 241 277 22,700 -1,440 Descending FlightAware ADS-B
04:00PM 29.8634 -97.3458 275° West 241 277 22,600 -1,560 Descending FlightAware ADS-B
04:00PM 29.8657 -97.3810 274° West 259 298 21,900 -1,620 Descending FlightAware ADS-B
04:00PM 29.8667 -97.3969 274° West 265 305 21,600 -1,620 Descending FlightAware ADS-B
04:00PM 29.8685 -97.4240 274° West 271 312 21,100 -1,740 Descending FlightAware ADS-B
04:01PM 29.8697 -97.4419 274° West 274 315 20,700 -1,800 Descending FlightAware ADS-B
04:01PM 29.8715 -97.4686 274° West 275 316 20,200 -1,620 Descending FlightAware ADS-B
04:01PM 29.8727 -97.4863 274° West 276 318 19,900 -1,620 Descending FlightAware ADS-B
04:02PM 29.8744 -97.5126 274° West 278 320 19,400 -1,800 Descending FlightAware ADS-B
04:02PM 29.8758 -97.5328 275° West 278 320 19,000 -1,560 Descending FlightAware ADS-B
04:02PM 29.8775 -97.5589 274° West 278 320 18,600 -1,680 Descending FlightAware ADS-B
04:02PM 29.8794 -97.5872 274° West 286 329 18,000 -1,800 Descending FlightAware ADS-B
04:03PM 29.8805 -97.6047 274° West 299 344 17,700 -1,740 Descending FlightAware ADS-B
04:03PM 29.8832 -97.6479 274° West 318 366 16,900 -1,740 Descending FlightAware ADS-B
04:03PM 29.8838 -97.6563 275° West 319 367 16,800 -1,740 Descending FlightAware ADS-B
04:04PM 29.8871 -97.7068 274° West 311 358 15,900 -1,800 Descending FlightAware ADS-B
04:04PM 29.8883 -97.7243 275° West 314 361 15,600 -1,740 Descending FlightAware ADS-B
04:04PM 29.8905 -97.7591 274° West 299 344 15,000 -1,620 Descending FlightAware ADS-B
04:04PM 29.8914 -97.7722 275° West 305 351 14,800 -1,380 Descending FlightAware ADS-B
04:05PM 29.8937 -97.8068 274° West 291 335 14,300 -1,500 Descending FlightAware ADS-B
04:05PM 29.8957 -97.8538 273° West 285 328 13,500 -1,620 Descending FlightAware ADS-B
04:05PM 29.8915 -97.8745 257° West 281 323 13,100 -1,500 Descending FlightAware ADS-B
04:05PM 29.8884 -97.8825 246° West 278 320 13,000 -720 Descending FlightAware ADS-B
04:06PM 29.8717 -97.9209 243° Southwest 262 302 12,700 -840 Descending FlightAware ADS-B
04:06PM 29.8565 -97.9582 245° Southwest 255 293 12,200 -1,020 Descending FlightAware ADS-B
04:07PM 29.8408 -97.9957 244° Southwest 251 289 11,700 -1,140 Descending FlightAware ADS-B
04:07PM 29.8254 -98.0320 244° Southwest 249 287 11,100 -1,140 Descending FlightAware ADS-B
04:08PM 29.8103 -98.0676 244° Southwest 245 282 10,600 -1,140 Descending FlightAware ADS-B
04:08PM 29.7955 -98.1028 244° Southwest 243 280 10,000 -1,140 Descending FlightAware ADS-B
04:09PM 29.7893 -98.1175 244° Southwest 241 277 9,800 -960 Descending FlightAware ADS-B
04:09PM 29.7829 -98.1327 244° Southwest 240 276 9,600 -1,080 Descending FlightAware ADS-B
04:09PM 29.7750 -98.1514 244° Southwest 237 273 9,300 -1,140 Descending FlightAware ADS-B
04:09PM 29.7673 -98.1695 244° Southwest 234 269 9,000 -1,080 Descending FlightAware ADS-B
04:10PM 29.7589 -98.1895 244° Southwest 233 268 8,700 -1,080 Descending FlightAware ADS-B
04:10PM 29.7517 -98.2066 244° Southwest 232 267 8,400 -1,320 Descending FlightAware ADS-B
04:10PM 29.7437 -98.2255 244° Southwest 232 267 8,000 -1,320 Descending FlightAware ADS-B
04:11PM 29.7362 -98.2432 244° Southwest 232 267 7,700 -1,140 Descending FlightAware ADS-B
04:11PM 29.7287 -98.2612 244° Southwest 234 269 7,400 -1,200 Descending FlightAware ADS-B
04:11PM 29.7213 -98.2787 244° Southwest 238 274 7,100 -1,500 Descending FlightAware ADS-B
04:11PM 29.7146 -98.2945 244° Southwest 241 277 6,700 -1,440 Descending FlightAware ADS-B
04:12PM 29.7070 -98.3122 244° Southwest 239 275 6,400 -1,380 Descending FlightAware ADS-B
04:12PM 29.6993 -98.3302 244° Southwest 237 273 6,000 -960 Descending FlightAware ADS-B
04:12PM 29.6917 -98.3481 244° Southwest 228 262 5,900 -240 Descending FlightAware ADS-B
04:12PM 29.6845 -98.3651 244° Southwest 218 251 5,900  Level FlightAware ADS-B
04:13PM 29.6777 -98.3811 244° Southwest 210 242 5,900  Level FlightAware ADS-B
04:13PM 29.6712 -98.3964 244° Southwest 204 235 5,900  Level FlightAware ADS-B
04:13PM 29.6619 -98.4183 244° Southwest 201 231 5,900  Level FlightAware ADS-B
04:13PM 29.6569 -98.4301 244° Southwest 195 224 5,900  Level FlightAware ADS-B
04:14PM 29.6550 -98.4350 246° West 196 226 5,900  Level FlightAware ADS-B
04:14PM 29.6538 -98.4420 259° West 201 231 5,900  Level FlightAware ADS-B
04:14PM 29.6538 -98.4458 270° West 205 236 5,900  Level FlightAware ADS-B
04:14PM 29.6542 -98.4497 277° West 209 241 5,900  Level FlightAware ADS-B
04:14PM 29.6557 -98.4550 288° West 214 246 5,900  Level FlightAware ADS-B
04:14PM 29.6569 -98.4580 295° West 217 250 5,900  Level FlightAware ADS-B
04:14PM 29.6591 -98.4621 302° West 222 255 5,900 -780 Level FlightAware ADS-B
04:14PM 29.6619 -98.4665 306° West 225 259 5,800 -540 Descending FlightAware ADS-B
04:14PM 29.6666 -98.4730 310° West 226 260 5,800 240 Level FlightAware ADS-B
04:14PM 29.6776 -98.4873 312° West 225 259 5,900 180 Climbing FlightAware ADS-B
04:15PM 29.6882 -98.5012 311° West 222 255 5,900 -1,080 Level FlightAware ADS-B
04:15PM 29.7169 -98.5398 311° West 222 255 4,900 -1,500 Descending FlightAware ADS-B
04:15PM 29.7196 -98.5436 309° West 244 281 4,800 -1,440 Descending FlightAware ADS-B
04:16PM 29.7339 -98.5664 306° West 239 275 4,300 -1,440 Descending FlightAware ADS-B
04:16PM 29.7350 -98.5699 290° West 233 268 4,200 -1,020 Descending FlightAware ADS-B
04:16PM 29.7357 -98.5736 282° West 229 264 4,200 -1,140 Level FlightAware ADS-B
04:16PM 29.7340 -98.5892 263° West 210 242 3,900 -1,020 Descending FlightAware ADS-B
04:17PM 29.7069 -98.6197 263° West 190 219 3,200 -780 Descending Houston Center
04:17PM 29.6961 -98.6306 221° Southwest 191 220 3,100 -300 Descending Houston Center
04:18PM 29.6708 -98.6383 195° South 149 171 2,900 -120 Descending Houston Center
04:18PM 29.6558 -98.6275 148° Southeast 158 182 3,000 60 Climbing Houston Center
04:19PM 29.6342 -98.6044 137° Southeast 153 176 3,000  Level Houston Center
04:19PM 29.6261 -98.5928 128° Southeast 152 175 3,000  Level Houston Center
04:20PM 29.6081 -98.5714 134° Southeast 135 155 3,000 -240 Level Houston Center
04:20PM 29.6000 -98.5589 127° Southeast 136 157 2,800 -1,020 Descending Houston Center
04:21PM 29.5844 -98.5431 138° Southeast 126 145 2,000 -1,020 Descending Houston Center
04:21PM 29.5753 -98.5272 124° Southeast 133 153 1,800 -600 Descending Houston Center
04:22PM 29.5622 -98.5047 124° Southeast 142 163 1,400 -600 Descending Houston Center
04:22PM 29.5511 -98.4894 130° Southeast 137 158 1,200 -420 Descending Houston Center
04:23PM 29.5339 -98.4683 133° Southeast 96 110 800 -420 Descending Houston Center
04:25PM 29.5340 -98.4691 176° South  Level Estimated
04:32PM 29.5333 -98.4667 12° North  Level FlightAware Approximate